createdAt,value
2022-08-07T00:00:18.530Z,64.04
2022-08-07T00:02:46.137Z,64.24
2022-08-07T00:05:13.715Z,63.84
2022-08-07T00:07:41.747Z,63.89
2022-08-07T00:10:26.099Z,63.89
2022-08-07T00:12:59.825Z,63.20
2022-08-07T00:15:37.982Z,63.51
2022-08-07T00:18:19.788Z,63.08
2022-08-07T00:20:54.053Z,62.93
2022-08-07T00:23:22.059Z,62.23
2022-08-07T00:26:00.381Z,61.73
2022-08-07T00:28:34.283Z,61.63
2022-08-07T00:31:12.710Z,61.44
2022-08-07T00:33:46.655Z,61.18
2022-08-07T00:36:15.370Z,60.81
2022-08-07T00:38:44.492Z,61.22
2022-08-07T00:41:14.460Z,61.46
2022-08-07T00:44:00.388Z,61.43
2022-08-07T00:46:32.808Z,60.55
2022-08-07T00:49:03.464Z,60.30
2022-08-07T00:51:58.499Z,59.90
2022-08-07T00:54:20.027Z,59.58
2022-08-07T00:56:49.937Z,59.22
2022-08-07T00:59:20.158Z,59.15
2022-08-07T01:01:59.879Z,59.10
2022-08-07T01:04:27.250Z,59.43
2022-08-07T01:06:58.051Z,58.97
2022-08-07T01:10:04.635Z,59.21
2022-08-07T01:12:30.208Z,59.39
2022-08-07T01:15:00.992Z,59.42
2022-08-07T01:17:30.658Z,59.04
2022-08-07T01:20:05.131Z,58.80
2022-08-07T01:22:34.531Z,58.84
2022-08-07T01:25:05.174Z,58.69
2022-08-07T01:27:51.595Z,58.64
2022-08-07T01:30:19.812Z,58.64
2022-08-07T01:32:55.654Z,58.76
2022-08-07T01:35:53.487Z,58.94
2022-08-07T01:38:25.822Z,59.24
2022-08-07T01:41:03.693Z,59.33
2022-08-07T01:43:38.096Z,59.51
2022-08-07T01:46:08.402Z,59.61
2022-08-07T01:48:47.540Z,59.53
2022-08-07T01:52:01.087Z,59.54
2022-08-07T01:54:36.535Z,59.07
2022-08-07T01:57:24.378Z,58.67
2022-08-07T01:59:57.971Z,57.60
2022-08-07T02:03:18.041Z,58.28
2022-08-07T02:05:43.417Z,59.38
2022-08-07T02:08:20.892Z,60.16
2022-08-07T02:10:55.257Z,60.20
2022-08-07T02:13:57.495Z,60.50
2022-08-07T02:16:19.773Z,60.78
2022-08-07T02:18:51.151Z,60.71
2022-08-07T02:21:19.733Z,60.52
2022-08-07T02:23:49.295Z,60.75
2022-08-07T02:26:33.003Z,60.55
2022-08-07T02:29:05.294Z,60.57
2022-08-07T02:31:42.813Z,61.37
2022-08-07T02:34:17.950Z,61.74
2022-08-07T02:36:52.371Z,62.20
2022-08-07T02:39:43.344Z,61.90
2022-08-07T02:42:16.281Z,61.79
2022-08-07T02:44:50.131Z,61.69
2022-08-07T02:47:23.743Z,61.29
2022-08-07T02:50:00.206Z,61.96
2022-08-07T02:52:44.281Z,61.74
2022-08-07T02:55:27.879Z,62.01
2022-08-07T02:58:13.012Z,62.15
2022-08-07T03:00:47.062Z,62.15
2022-08-07T03:03:20.981Z,62.31
2022-08-07T03:05:53.808Z,61.59
2022-08-07T03:08:26.890Z,61.75
2022-08-07T03:10:59.893Z,61.84
2022-08-07T03:13:38.721Z,61.62
2022-08-07T03:16:09.773Z,61.46
2022-08-07T03:18:40.581Z,61.53
2022-08-07T03:21:12.813Z,61.75
2022-08-07T03:24:18.359Z,61.67
2022-08-07T03:26:42.898Z,61.99
2022-08-07T03:29:21.463Z,62.41
2022-08-07T03:31:51.773Z,62.95
2022-08-07T03:34:22.862Z,62.44
2022-08-07T03:36:58.372Z,62.89
2022-08-07T03:39:59.948Z,63.01
2022-08-07T03:42:20.060Z,63.06
2022-08-07T03:44:53.576Z,63.19
2022-08-07T03:47:29.602Z,62.92
2022-08-07T03:50:23.161Z,62.43
2022-08-07T03:52:54.181Z,62.85
2022-08-07T03:55:22.773Z,63.59
2022-08-07T03:59:05.452Z,63.95
2022-08-07T04:00:46.244Z,64.31
2022-08-07T04:03:21.532Z,63.84
2022-08-07T04:05:51.532Z,64.08
2022-08-07T04:08:26.852Z,63.95
2022-08-07T04:12:20.882Z,63.80
2022-08-07T04:14:10.878Z,63.92
2022-08-07T04:16:35.492Z,64.42
2022-08-07T04:19:15.019Z,64.35
2022-08-07T04:21:59.077Z,64.71
2022-08-07T04:24:34.308Z,63.85
2022-08-07T04:27:15.325Z,63.75
2022-08-07T04:30:01.229Z,64.37
2022-08-07T04:32:48.218Z,64.40
2022-08-07T04:35:27.213Z,64.74
2022-08-07T04:38:08.150Z,64.60
2022-08-07T04:40:51.812Z,64.65
2022-08-07T04:44:13.118Z,64.98
2022-08-07T04:46:59.530Z,65.01
2022-08-07T04:49:57.709Z,64.55
2022-08-07T04:53:04.573Z,64.33
2022-08-07T04:58:07.320Z,64.50
2022-08-07T04:59:16.886Z,64.69
2022-08-07T05:01:40.646Z,65.13
2022-08-07T05:04:24.573Z,64.26
2022-08-07T05:07:19.552Z,64.46
2022-08-07T05:10:27.102Z,64.36
2022-08-07T05:13:01.452Z,63.99
2022-08-07T05:15:47.653Z,63.96
2022-08-07T05:18:23.973Z,64.74
2022-08-07T05:21:12.812Z,64.57
2022-08-07T05:23:52.093Z,63.98
2022-08-07T05:26:24.039Z,64.40
2022-08-07T05:29:04.621Z,64.96
2022-08-07T05:31:38.822Z,64.81
2022-08-07T05:34:16.115Z,64.04
2022-08-07T05:36:54.113Z,64.17
2022-08-07T05:40:06.664Z,63.85
2022-08-07T05:42:33.299Z,63.76
2022-08-07T05:45:14.402Z,63.84
2022-08-07T05:48:01.141Z,63.95
2022-08-07T05:50:34.453Z,62.50
2022-08-07T05:53:04.135Z,61.52
2022-08-07T05:56:02.774Z,61.22
2022-08-07T05:58:36.032Z,60.72
2022-08-07T06:01:10.766Z,60.26
2022-08-07T06:03:53.378Z,60.22
2022-08-07T06:06:29.893Z,59.77
2022-08-07T06:09:05.167Z,59.64
2022-08-07T06:11:38.060Z,59.17
2022-08-07T06:14:11.852Z,59.20
2022-08-07T06:16:50.241Z,58.70
2022-08-07T06:19:57.799Z,57.60
2022-08-07T06:22:23.009Z,57.18
2022-08-07T06:25:03.039Z,56.88
2022-08-07T06:27:54.468Z,56.54
2022-08-07T06:30:24.200Z,56.36
2022-08-07T06:33:04.373Z,56.27
2022-08-07T06:35:45.910Z,56.28
2022-08-07T06:38:20.572Z,56.00
2022-08-07T06:40:53.485Z,55.42
2022-08-07T06:43:25.253Z,54.76
2022-08-07T06:46:12.574Z,54.62
2022-08-07T06:48:44.714Z,54.35
2022-08-07T06:51:31.348Z,54.31
2022-08-07T06:55:33.578Z,54.03
2022-08-07T06:56:56.812Z,54.28
2022-08-07T07:00:13.918Z,54.23
2022-08-07T07:02:53.391Z,53.97
2022-08-07T07:05:14.549Z,55.48
2022-08-07T07:08:06.570Z,54.77
2022-08-07T07:10:37.373Z,53.93
2022-08-07T07:13:13.621Z,54.19
2022-08-07T07:15:51.438Z,54.41
2022-08-07T07:18:47.743Z,54.21
2022-08-07T07:21:20.501Z,54.56
2022-08-07T07:24:09.952Z,53.57
2022-08-07T07:26:38.333Z,53.09
2022-08-07T07:29:39.485Z,52.71
2022-08-07T07:32:06.253Z,51.78
2022-08-07T07:34:36.852Z,52.03
2022-08-07T07:37:21.657Z,51.89
2022-08-07T07:40:00.885Z,51.60
2022-08-07T07:42:32.748Z,50.83
2022-08-07T07:45:04.574Z,51.29
2022-08-07T07:47:51.751Z,50.32
2022-08-07T07:50:36.409Z,50.18
2022-08-07T07:53:20.258Z,49.25
2022-08-07T07:56:00.661Z,49.75
2022-08-07T07:58:40.198Z,48.57
2022-08-07T08:02:01.930Z,48.15
2022-08-07T08:04:10.039Z,47.97
2022-08-07T08:06:52.180Z,48.35
2022-08-07T08:09:29.493Z,47.49
2022-08-07T08:12:02.273Z,46.78
2022-08-07T08:14:37.032Z,45.91
2022-08-07T08:17:56.094Z,45.17
2022-08-07T08:20:18.119Z,45.56
2022-08-07T08:23:11.372Z,45.68
2022-08-07T08:26:06.825Z,45.63
2022-08-07T08:28:43.409Z,44.51
2022-08-07T08:31:22.822Z,43.68
2022-08-07T08:33:59.413Z,42.56
2022-08-07T08:36:32.572Z,43.00
2022-08-07T08:39:03.128Z,42.78
2022-08-07T08:41:57.268Z,42.24
2022-08-07T08:44:31.494Z,41.83
2022-08-07T08:47:47.233Z,42.37
2022-08-07T08:50:38.889Z,41.92
2022-08-07T08:53:39.493Z,40.46
2022-08-07T08:56:17.415Z,39.82
2022-08-07T08:58:58.099Z,39.99
2022-08-07T09:01:29.924Z,39.62
2022-08-07T09:04:52.460Z,39.77
2022-08-07T09:07:34.022Z,37.44
2022-08-07T09:10:49.012Z,37.66
2022-08-07T09:13:39.613Z,37.54
2022-08-07T09:16:31.474Z,36.28
2022-08-07T09:19:03.586Z,36.51
2022-08-07T09:22:09.747Z,36.38
2022-08-07T09:25:14.834Z,36.15
2022-08-07T09:28:01.100Z,35.67
2022-08-07T09:30:50.573Z,35.13
2022-08-07T09:34:02.493Z,35.36
2022-08-07T09:36:42.844Z,35.99
2022-08-07T09:39:53.800Z,34.55
2022-08-07T09:42:43.772Z,34.77
2022-08-07T09:47:50.135Z,34.71
2022-08-07T09:48:55.967Z,33.64
2022-08-07T09:52:15.459Z,33.48
2022-08-07T09:55:17.273Z,32.37
2022-08-07T09:58:32.175Z,32.61
2022-08-07T10:01:51.480Z,31.98
2022-08-07T10:04:28.387Z,31.99
2022-08-07T10:07:53.321Z,32.34
2022-08-07T10:11:17.080Z,32.48
2022-08-07T10:14:01.475Z,31.85
2022-08-07T10:16:41.812Z,31.36
2022-08-07T10:19:38.531Z,32.26
2022-08-07T10:22:24.917Z,30.55
2022-08-07T10:25:42.460Z,30.22
2022-08-07T10:28:58.534Z,31.49
2022-08-07T10:31:49.569Z,32.02
2022-08-07T10:34:38.772Z,31.90
2022-08-07T10:37:05.940Z,31.33
2022-08-07T10:40:03.010Z,31.15
2022-08-07T10:42:40.620Z,30.87
2022-08-07T10:45:57.609Z,30.87
2022-08-07T10:48:44.180Z,31.21
2022-08-07T10:51:38.898Z,29.93
2022-08-07T10:54:35.213Z,30.25
2022-08-07T10:57:35.328Z,29.73
2022-08-07T11:00:09.852Z,29.81
2022-08-07T11:14:42.402Z,28.54
2022-08-07T11:16:36.669Z,29.02
2022-08-07T11:19:40.413Z,29.63
2022-08-07T11:22:46.258Z,27.80
2022-08-07T11:25:42.489Z,27.36
2022-08-07T11:28:21.532Z,27.33
2022-08-07T11:30:55.886Z,26.59
2022-08-07T11:33:58.714Z,26.00
2022-08-07T11:36:44.411Z,26.25
2022-08-07T11:39:24.440Z,25.93
2022-08-07T11:42:03.622Z,25.15
2022-08-07T11:44:52.320Z,26.22
2022-08-07T11:47:59.145Z,26.65
2022-08-07T11:50:57.173Z,25.29
2022-08-07T11:53:43.308Z,24.43
2022-08-07T11:57:02.532Z,23.86
2022-08-07T12:00:12.044Z,24.47
2022-08-07T12:02:52.149Z,24.06
2022-08-07T12:05:47.480Z,24.57
2022-08-07T12:08:34.636Z,25.28
2022-08-07T12:11:21.214Z,26.19
2022-08-07T12:14:11.613Z,26.28
2022-08-07T12:17:05.652Z,25.99
2022-08-07T12:20:02.762Z,25.40
2022-08-07T12:22:56.510Z,25.93
2022-08-07T12:26:05.323Z,25.87
2022-08-07T12:29:00.541Z,26.57
2022-08-07T12:32:01.924Z,27.35
2022-08-07T12:34:34.812Z,28.01
2022-08-07T12:37:08.702Z,28.11
2022-08-07T12:39:51.228Z,26.07
2022-08-07T12:42:27.621Z,27.06
2022-08-07T12:44:59.115Z,26.12
2022-08-07T12:47:41.012Z,27.09
2022-08-07T12:50:49.089Z,26.43
2022-08-07T12:54:02.927Z,26.20
2022-08-07T12:56:36.574Z,26.20
2022-08-07T12:59:08.407Z,26.72
2022-08-07T13:02:10.223Z,26.76
2022-08-07T13:06:03.855Z,26.30
2022-08-07T13:08:18.915Z,26.14
2022-08-07T13:11:17.651Z,25.81
2022-08-07T13:14:19.332Z,26.50
2022-08-07T13:17:41.180Z,26.45
2022-08-07T13:20:18.179Z,27.03
2022-08-07T13:23:59.749Z,27.15
2022-08-07T13:26:02.340Z,28.20
2022-08-07T13:28:59.852Z,28.46
2022-08-07T13:31:46.155Z,28.16
2022-08-07T13:34:39.017Z,28.47
2022-08-07T13:37:49.665Z,28.65
2022-08-07T13:40:43.360Z,29.01
2022-08-07T13:43:13.627Z,29.98
2022-08-07T13:46:11.533Z,30.34
2022-08-07T13:48:39.460Z,29.58
2022-08-07T13:51:28.476Z,29.19
2022-08-07T13:54:09.537Z,29.69
2022-08-07T13:56:52.067Z,29.82
2022-08-07T13:59:27.852Z,30.55
2022-08-07T14:02:10.894Z,31.13
2022-08-07T14:04:49.984Z,31.61
2022-08-07T14:07:23.061Z,31.52
2022-08-07T14:10:02.227Z,31.29
2022-08-07T14:12:55.009Z,31.78
2022-08-07T14:15:51.212Z,31.32
2022-08-07T14:18:29.662Z,32.07
2022-08-07T14:22:01.246Z,32.47
2022-08-07T14:24:48.213Z,32.52
2022-08-07T14:28:10.937Z,31.60
2022-08-07T14:32:59.853Z,31.57
2022-08-07T14:35:45.377Z,32.03
2022-08-07T14:38:26.765Z,31.73
2022-08-07T14:44:07.892Z,31.78
2022-08-07T14:46:51.840Z,32.72
2022-08-07T14:49:58.287Z,31.38
2022-08-07T14:52:25.803Z,30.74
2022-08-07T14:54:55.772Z,30.37
2022-08-07T14:57:28.952Z,30.65
2022-08-07T15:00:30.004Z,32.51
2022-08-07T15:03:00.311Z,32.65
2022-08-07T15:08:55.019Z,32.30
2022-08-07T15:14:21.412Z,32.87
2022-08-07T15:17:00.991Z,33.69
2022-08-07T15:19:44.121Z,33.29
2022-08-07T15:22:51.711Z,32.45
2022-08-07T15:25:36.777Z,32.66
2022-08-07T15:28:32.453Z,31.87
2022-08-07T15:31:06.396Z,31.70
2022-08-07T15:33:36.804Z,31.10
2022-08-07T15:36:08.018Z,31.72
2022-08-07T15:38:51.919Z,32.50
2022-08-07T15:42:44.621Z,32.77
2022-08-07T15:44:19.454Z,33.04
2022-08-07T15:46:55.453Z,33.14
2022-08-07T15:50:04.839Z,33.91
2022-08-07T15:52:29.772Z,33.86
2022-08-07T15:55:02.683Z,33.76
2022-08-07T15:57:39.482Z,33.76
2022-08-07T16:00:08.660Z,32.88
2022-08-07T16:02:58.254Z,32.75
2022-08-07T16:05:31.198Z,33.09
2022-08-07T16:08:33.055Z,33.20
2022-08-07T16:10:58.053Z,34.30
2022-08-07T16:13:59.039Z,34.34
2022-08-07T16:16:49.153Z,34.67
2022-08-07T16:19:41.892Z,35.08
2022-08-07T16:22:56.234Z,35.42
2022-08-07T16:25:55.814Z,34.91
2022-08-07T16:30:09.135Z,34.99
2022-08-07T16:32:06.854Z,35.73
2022-08-07T16:35:51.989Z,35.41
2022-08-07T16:39:02.361Z,36.38
2022-08-07T16:41:41.393Z,36.36
2022-08-07T16:45:14.955Z,36.48
2022-08-07T16:49:04.262Z,36.49
2022-08-07T16:52:01.682Z,36.78
2022-08-07T16:55:03.200Z,37.63
2022-08-07T16:58:03.010Z,37.25
2022-08-07T17:00:53.576Z,37.57
2022-08-07T17:03:58.105Z,37.95
2022-08-07T17:06:42.597Z,37.92
2022-08-07T17:10:06.125Z,38.45
2022-08-07T17:12:33.781Z,38.39
2022-08-07T17:15:16.926Z,38.57
2022-08-07T17:17:47.695Z,38.82
2022-08-07T17:20:29.669Z,39.06
2022-08-07T17:23:32.483Z,38.91
2022-08-07T17:26:24.304Z,39.13
2022-08-07T17:30:15.640Z,39.22
2022-08-07T17:32:30.713Z,39.96
2022-08-07T17:35:51.058Z,40.16
2022-08-07T17:38:33.836Z,40.81
2022-08-07T17:41:12.382Z,40.15
2022-08-07T17:44:33.198Z,41.16
2022-08-07T17:47:08.428Z,42.26
2022-08-07T17:49:52.423Z,42.19
2022-08-07T17:52:39.645Z,43.47
2022-08-07T17:55:15.987Z,43.08
2022-08-07T17:58:30.633Z,44.88
2022-08-07T18:01:03.360Z,44.49
2022-08-07T18:04:06.940Z,44.62
2022-08-07T18:06:42.882Z,43.98
2022-08-07T18:09:19.053Z,44.37
2022-08-07T18:12:19.635Z,43.36
2022-08-07T18:15:33.007Z,43.55
2022-08-07T18:18:47.642Z,42.97
2022-08-07T18:21:37.171Z,43.43
2022-08-07T18:24:28.445Z,43.88
2022-08-07T18:27:11.132Z,44.27
2022-08-07T18:30:31.066Z,44.10
2022-08-07T18:33:26.996Z,43.69
2022-08-07T18:36:14.652Z,44.39
2022-08-07T18:40:07.920Z,44.60
2022-08-07T18:42:21.300Z,44.98
2022-08-07T18:45:44.583Z,44.65
2022-08-07T18:48:04.614Z,45.06
2022-08-07T18:50:47.290Z,44.58
2022-08-07T18:53:39.276Z,44.43
2022-08-07T18:56:58.402Z,44.79
2022-08-07T18:59:46.765Z,44.49
2022-08-07T19:02:36.457Z,43.98
2022-08-07T19:05:25.283Z,44.96
2022-08-07T19:08:07.571Z,44.85
2022-08-07T19:10:52.207Z,44.56
2022-08-07T19:13:33.740Z,44.63
2022-08-07T19:17:01.161Z,45.62
2022-08-07T19:19:31.630Z,45.74
2022-08-07T19:22:11.209Z,45.50
2022-08-07T19:24:48.992Z,45.36
2022-08-07T19:28:56.896Z,45.79
2022-08-07T19:31:01.641Z,45.38
2022-08-07T19:33:13.341Z,45.23
2022-08-07T19:35:46.776Z,45.85
2022-08-07T19:38:17.882Z,45.69
2022-08-07T19:40:49.946Z,45.79
2022-08-07T19:43:49.340Z,46.19
2022-08-07T19:46:26.571Z,46.10
2022-08-07T19:49:07.620Z,46.68
2022-08-07T19:51:52.268Z,46.37
2022-08-07T19:54:43.902Z,46.30
2022-08-07T19:58:02.866Z,46.27
2022-08-07T20:00:08.782Z,46.99
2022-08-07T20:02:50.774Z,46.83
2022-08-07T20:05:28.212Z,46.28
2022-08-07T20:08:12.653Z,46.10
2022-08-07T20:10:54.309Z,46.59
2022-08-07T20:13:47.654Z,47.61
2022-08-07T20:16:34.822Z,47.80
2022-08-07T20:19:10.860Z,48.29
2022-08-07T20:21:48.485Z,48.54
2022-08-07T20:24:23.412Z,48.41
2022-08-07T20:26:54.888Z,48.69
2022-08-07T20:29:48.274Z,48.87
2022-08-07T20:32:42.213Z,49.37
2022-08-07T20:35:26.493Z,49.70
2022-08-07T20:37:59.173Z,49.28
2022-08-07T20:40:34.621Z,49.30
2022-08-07T20:43:09.730Z,50.30
2022-08-07T20:46:27.531Z,50.54
2022-08-07T20:49:54.075Z,50.41
2022-08-07T20:51:31.093Z,50.12
2022-08-07T20:54:12.152Z,50.18
2022-08-07T20:56:48.951Z,50.70
2022-08-07T21:00:05.125Z,50.34
2022-08-07T21:02:38.402Z,51.00
2022-08-07T21:05:16.526Z,51.05
2022-08-07T21:07:49.465Z,50.91
2022-08-07T21:10:31.435Z,51.06
2022-08-07T21:13:03.413Z,50.54
2022-08-07T21:15:58.360Z,50.37
2022-08-07T21:18:29.404Z,50.19
2022-08-07T21:21:01.893Z,50.12
2022-08-07T21:23:52.013Z,50.24
2022-08-07T21:26:32.133Z,50.59
2022-08-07T21:29:18.940Z,50.95
2022-08-07T21:32:47.840Z,50.72
2022-08-07T21:35:34.600Z,51.15
2022-08-07T21:38:27.955Z,50.54
2022-08-07T21:41:09.569Z,50.96
2022-08-07T21:44:14.712Z,51.28
2022-08-07T21:47:05.053Z,51.42
2022-08-07T21:50:08.692Z,51.47
2022-08-07T21:52:54.754Z,51.83
2022-08-07T21:55:29.800Z,51.34
2022-08-07T21:58:32.308Z,51.41
2022-08-07T22:01:08.494Z,51.42
2022-08-07T22:03:48.134Z,51.42
2022-08-07T22:06:30.040Z,51.49
2022-08-07T22:09:10.944Z,51.20
2022-08-07T22:11:53.013Z,50.87
2022-08-07T22:14:59.566Z,50.67
2022-08-07T22:17:36.253Z,50.76
2022-08-07T22:20:10.789Z,50.64
2022-08-07T22:22:59.413Z,50.71
2022-08-07T22:25:39.934Z,51.03
2022-08-07T22:28:31.408Z,50.84
2022-08-07T22:31:56.033Z,51.18
2022-08-07T22:34:55.133Z,51.44
2022-08-07T22:38:02.748Z,51.46
2022-08-07T22:40:42.212Z,51.75
2022-08-07T22:43:18.061Z,51.31
2022-08-07T22:46:42.851Z,51.30
2022-08-07T22:49:20.893Z,51.11
2022-08-07T22:52:07.174Z,51.03
2022-08-07T22:54:49.011Z,51.09
2022-08-07T22:57:41.988Z,50.97
2022-08-07T23:00:28.525Z,50.85
2022-08-07T23:03:18.211Z,51.43
2022-08-07T23:06:18.167Z,51.50
2022-08-07T23:10:03.772Z,51.44
2022-08-07T23:12:32.766Z,52.07
2022-08-07T23:15:02.094Z,51.68
2022-08-07T23:17:47.652Z,51.88
2022-08-07T23:20:40.646Z,52.12
2022-08-07T23:24:05.781Z,52.26
2022-08-07T23:26:25.244Z,52.59
2022-08-07T23:29:43.783Z,52.82
2022-08-07T23:34:35.253Z,52.77
2022-08-07T23:36:22.921Z,52.91
2022-08-07T23:39:08.618Z,52.81
2022-08-07T23:42:21.935Z,52.84
2022-08-07T23:45:15.346Z,52.62
2022-08-07T23:48:09.174Z,52.96
2022-08-07T23:51:00.802Z,53.08
2022-08-07T23:53:49.735Z,52.91
2022-08-07T23:56:53.612Z,53.47
